Time;durP1;ratioP1;P1;durP2;ratioP2;P2;SDS_P1;SDS_P2;PMS_P1;PMS_P2;Temp;Humidity;BMP_temperature;BMP_pressure;BME280_temperature;BME280_humidity;BME280_pressure;Samples;Min_cycle;Max_cycle;Signal;HPM_P1;HPM_P2
2023/04/22 00:00:49;;;;;;;4.00;3.30;;;;;;;21.90;36.25;101031.03;5106990;27;20036;-73
2023/04/22 00:03:15;;;;;;;4.53;3.65;;;;;;;21.97;35.77;101023.94;5124553;27;20063;-73
2023/04/22 00:05:41;;;;;;;4.57;3.33;;;;;;;21.91;36.01;101015.94;5110981;28;20040;-73
2023/04/22 00:08:07;;;;;;;4.60;3.55;;;;;;;21.94;36.09;101013.72;5114733;27;20039;-73
2023/04/22 00:10:33;;;;;;;4.28;3.55;;;;;;;21.95;36.07;101015.34;5114151;27;20036;-73
2023/04/22 00:12:59;;;;;;;3.97;3.50;;;;;;;21.89;36.32;101005.50;5116714;27;20035;-73
2023/04/22 00:15:25;;;;;;;3.53;3.22;;;;;;;21.90;36.09;101014.25;5108615;27;20423;-73
2023/04/22 00:17:51;;;;;;;4.82;3.28;;;;;;;21.86;36.00;101013.81;5110688;27;20513;-73
2023/04/22 00:20:20;;;;;;;4.47;3.20;;;;;;;21.83;36.12;101013.38;5104137;27;20031;-73
2023/04/22 00:22:46;;;;;;;4.28;3.58;;;;;;;21.86;36.36;101008.53;5114096;27;21062;-73
2023/04/22 00:25:11;;;;;;;3.47;3.00;;;;;;;21.78;36.44;101003.34;5112041;27;20075;-73
2023/04/22 00:27:37;;;;;;;3.28;2.80;;;;;;;21.90;36.20;101024.88;5112184;27;20039;-73
2023/04/22 00:30:03;;;;;;;4.65;3.45;;;;;;;21.80;36.56;101011.94;5104400;27;20035;-73
2023/04/22 00:32:28;;;;;;;4.10;3.50;;;;;;;21.80;36.39;101013.78;5106527;27;20048;-74
2023/04/22 00:34:56;;;;;;;3.67;3.17;;;;;;;21.90;36.28;101015.13;5102798;27;20050;-73
2023/04/22 00:37:22;;;;;;;4.38;3.63;;;;;;;21.78;36.29;101019.25;5116918;27;20031;-73
2023/04/22 00:39:48;;;;;;;3.67;3.05;;;;;;;21.78;36.45;101013.97;5107059;28;20073;-73
2023/04/22 00:42:14;;;;;;;3.58;3.28;;;;;;;21.77;36.72;101024.75;5112284;27;20039;-73
2023/04/22 00:44:41;;;;;;;3.20;2.90;;;;;;;21.81;36.62;101012.75;5112873;27;20035;-73
2023/04/22 00:47:07;;;;;;;4.43;3.53;;;;;;;21.74;36.63;101001.28;5111051;27;20515;-73
2023/04/22 00:49:35;;;;;;;3.92;3.20;;;;;;;21.81;36.51;101004.81;5095544;27;20089;-73
2023/04/22 00:52:01;;;;;;;3.95;3.20;;;;;;;21.77;36.55;101008.84;5109279;27;20051;-72
2023/04/22 00:54:27;;;;;;;3.47;3.17;;;;;;;21.72;36.26;101004.09;5108937;27;20123;-73
2023/04/22 00:56:54;;;;;;;4.13;3.50;;;;;;;21.65;36.60;101003.22;5117552;27;20042;-73
2023/04/22 00:59:22;;;;;;;3.53;3.22;;;;;;;21.69;36.75;101007.94;5108720;27;20039;-73
2023/04/22 01:01:47;;;;;;;3.53;3.22;;;;;;;21.81;36.60;101007.47;5106604;27;20047;-72
2023/04/22 01:04:14;;;;;;;3.20;2.90;;;;;;;21.77;36.63;101000.91;5114584;27;20032;-73
2023/04/22 01:06:40;;;;;;;4.53;3.30;;;;;;;21.75;36.58;100998.44;5107525;27;20043;-72
2023/04/22 01:09:06;;;;;;;5.97;3.33;;;;;;;21.69;36.81;100991.22;5107355;27;20060;-73
2023/04/22 01:11:34;;;;;;;3.20;2.80;;;;;;;21.68;36.72;100986.94;5096655;27;20036;-73
2023/04/22 01:14:01;;;;;;;3.60;3.28;;;;;;;21.63;36.69;100987.50;5108874;27;20481;-73
2023/04/22 01:16:27;;;;;;;3.10;2.80;;;;;;;21.66;36.82;100988.94;5093863;27;20378;-73
2023/04/22 01:18:53;;;;;;;4.70;3.50;;;;;;;21.63;36.64;100984.84;5099470;28;20117;-73
2023/04/22 01:21:19;;;;;;;3.45;2.90;;;;;;;21.55;36.98;100982.31;5107725;28;20031;-73
2023/04/22 01:23:45;;;;;;;4.55;3.05;;;;;;;21.63;36.56;100968.13;5098899;27;20618;-73
2023/04/22 01:26:10;;;;;;;3.63;3.10;;;;;;;21.62;36.67;100966.47;5110862;27;20050;-73
2023/04/22 01:28:36;;;;;;;3.67;3.10;;;;;;;21.65;36.84;100948.38;5102057;27;20043;-73
2023/04/22 01:31:02;;;;;;;2.75;2.45;;;;;;;21.57;36.72;100931.78;5109237;27;20040;-73
2023/04/22 01:33:28;;;;;;;4.70;3.17;;;;;;;21.63;36.88;100931.84;5100564;27;20122;-73
2023/04/22 01:35:54;;;;;;;3.80;3.15;;;;;;;21.63;36.72;100929.19;5095112;28;20118;-73
2023/04/22 01:38:20;;;;;;;3.65;2.80;;;;;;;21.63;36.85;100933.69;5096265;27;20469;-73
2023/04/22 01:40:45;;;;;;;3.45;3.15;;;;;;;21.67;36.49;100943.69;5108734;27;20051;-73
2023/04/22 01:43:11;;;;;;;4.90;3.17;;;;;;;21.61;36.84;100939.16;5110052;27;20035;-73
2023/04/22 01:45:37;;;;;;;3.80;3.33;;;;;;;21.55;37.06;100950.53;5094274;28;20035;-73
2023/04/22 01:48:05;;;;;;;3.28;2.97;;;;;;;21.61;36.84;100948.94;5100288;27;20035;-73
2023/04/22 01:50:31;;;;;;;3.22;2.67;;;;;;;21.60;36.78;100940.19;5103223;28;20099;-73
2023/04/22 01:52:57;;;;;;;3.22;2.92;;;;;;;21.57;37.02;100940.56;5101574;27;20243;-73
2023/04/22 01:55:23;;;;;;;3.55;3.00;;;;;;;21.54;37.05;100946.22;5099368;27;20039;-73
2023/04/22 01:57:49;;;;;;;4.03;3.30;;;;;;;21.59;36.87;100938.53;5131155;27;20035;-73
2023/04/22 02:00:15;;;;;;;3.55;2.60;;;;;;;21.55;36.91;100937.28;5094936;28;20039;-73
2023/04/22 02:02:44;;;;;;;4.55;3.28;;;;;;;21.58;36.75;100930.78;5108300;27;20031;-73
2023/04/22 02:05:10;;;;;;;3.45;3.15;;;;;;;21.47;36.99;100934.72;5109839;27;20076;-73
2023/04/22 02:07:36;;;;;;;2.88;2.58;;;;;;;21.51;36.85;100924.56;5111391;27;20050;-73
2023/04/22 02:10:05;;;;;;;3.38;2.90;;;;;;;21.55;36.83;100926.69;5111049;27;20024;-73
2023/04/22 02:12:33;;;;;;;3.58;3.20;;;;;;;21.50;36.88;100926.41;5109866;27;20053;-73
2023/04/22 02:14:59;;;;;;;3.47;3.15;;;;;;;21.51;37.04;100924.56;5105442;27;20035;-73
2023/04/22 02:17:25;;;;;;;3.53;2.80;;;;;;;21.54;37.07;100925.00;5102485;27;20062;-73
2023/04/22 02:19:50;;;;;;;3.75;2.90;;;;;;;21.51;36.79;100925.41;5102511;28;20027;-73
2023/04/22 02:22:16;;;;;;;3.55;2.95;;;;;;;21.55;36.75;100928.50;5102534;28;20097;-74
2023/04/22 02:24:42;;;;;;;3.95;2.78;;;;;;;21.52;37.03;100927.03;5109203;28;20028;-73
2023/04/22 02:27:08;;;;;;;4.90;3.17;;;;;;;21.50;36.92;100930.88;5083564;28;20401;-73
2023/04/22 02:29:34;;;;;;;3.28;2.90;;;;;;;21.52;37.04;100921.72;5097387;28;20039;-73
2023/04/22 02:32:00;;;;;;;3.28;2.70;;;;;;;21.54;37.06;100926.84;5095093;28;20095;-73
2023/04/22 02:34:26;;;;;;;3.63;2.90;;;;;;;21.48;37.07;100922.31;5107823;28;20031;-73
2023/04/22 02:36:53;;;;;;;3.55;3.10;;;;;;;21.42;36.86;100916.75;5104821;28;20039;-73
2023/04/22 02:39:18;;;;;;;3.40;3.10;;;;;;;21.46;37.02;100925.16;5117918;28;20031;-73
2023/04/22 02:41:44;;;;;;;3.13;2.80;;;;;;;21.37;37.06;100924.47;5124061;28;20036;-73
2023/04/22 02:44:10;;;;;;;3.95;3.03;;;;;;;21.45;37.17;100912.91;5093095;28;20130;-73
2023/04/22 02:46:36;;;;;;;3.17;2.60;;;;;;;21.44;36.99;100915.75;5097973;28;20055;-73
2023/04/22 02:49:02;;;;;;;3.33;2.90;;;;;;;21.44;37.04;100908.63;5089871;28;20035;-74
2023/04/22 02:51:27;;;;;;;3.38;2.90;;;;;;;21.39;37.02;100911.03;5107471;28;20111;-73
2023/04/22 02:53:53;;;;;;;3.15;2.85;;;;;;;21.45;36.99;100910.25;5096985;28;20035;-73
2023/04/22 02:56:20;;;;;;;3.67;3.05;;;;;;;21.47;36.93;100902.94;5084404;28;20042;-73
2023/04/22 02:58:45;;;;;;;3.88;2.90;;;;;;;21.33;37.21;100899.31;5104640;28;20032;-74
2023/04/22 03:01:11;;;;;;;3.28;2.90;;;;;;;21.33;37.47;100891.38;5102714;28;20032;-73
2023/04/22 03:03:37;;;;;;;3.60;3.05;;;;;;;21.45;37.08;100889.06;5099696;28;20039;-73
2023/04/22 03:06:07;;;;;;;4.28;2.90;;;;;;;21.38;37.00;100883.72;5103000;28;20031;-73
2023/04/22 03:08:32;;;;;;;3.40;2.97;;;;;;;21.31;37.14;100884.63;5099653;28;20166;-73
2023/04/22 03:10:58;;;;;;;3.38;2.90;;;;;;;21.42;36.94;100882.31;5092652;28;20024;-73
2023/04/22 03:13:23;;;;;;;3.55;2.80;;;;;;;21.36;37.28;100880.44;5084157;28;20102;-73
2023/04/22 03:15:50;;;;;;;3.45;2.85;;;;;;;21.37;37.16;100878.59;5091150;28;20046;-73
2023/04/22 03:18:16;;;;;;;3.78;3.13;;;;;;;21.36;37.28;100880.44;5090501;28;20039;-73
2023/04/22 03:20:42;;;;;;;3.83;2.92;;;;;;;21.34;37.39;100877.13;5101279;28;20585;-73
2023/04/22 03:23:08;;;;;;;3.10;2.75;;;;;;;21.36;37.27;100874.28;5087481;28;20035;-73
2023/04/22 03:25:35;;;;;;;3.70;3.05;;;;;;;21.35;37.19;100868.16;5098704;28;20035;-73
2023/04/22 03:28:02;;;;;;;4.03;3.10;;;;;;;21.25;37.32;100858.91;5093410;28;20050;-73
2023/04/22 03:30:29;;;;;;;3.85;2.90;;;;;;;21.30;37.17;100878.50;5107126;27;20047;-73
2023/04/22 03:32:55;;;;;;;3.58;2.90;;;;;;;21.41;36.96;100870.09;5103086;27;20040;-73
2023/04/22 03:35:26;;;;;;;3.47;2.97;;;;;;;21.32;37.23;100865.91;5116286;27;20048;-73
2023/04/22 03:37:53;;;;;;;2.90;2.60;;;;;;;21.36;37.31;100864.53;5094717;28;20035;-73
2023/04/22 03:40:26;;;;;;;4.00;2.78;;;;;;;21.36;37.31;100861.03;5096059;28;20035;-73
2023/04/22 03:42:52;;;;;;;3.35;3.05;;;;;;;21.33;37.23;100853.47;5102011;27;20040;-73
2023/04/22 03:45:20;;;;;;;3.53;2.67;;;;;;;21.34;37.15;100849.81;5090873;28;20032;-73
2023/04/22 03:47:53;;;;;;;2.90;2.63;;;;;;;21.34;37.17;100849.81;5096631;27;20043;-73
2023/04/22 03:50:24;;;;;;;3.22;2.90;;;;;;;21.30;37.36;100846.72;5108696;28;20043;-73
2023/04/22 03:52:52;;;;;;;3.10;2.80;;;;;;;21.27;37.29;100849.75;5100554;28;20088;-73
2023/04/22 03:55:19;;;;;;;3.08;2.78;;;;;;;21.30;37.30;100849.38;5111465;28;20490;-73
2023/04/22 03:57:46;;;;;;;3.20;2.70;;;;;;;21.34;37.12;100841.88;5104865;27;20115;-73
2023/04/22 04:00:13;;;;;;;3.42;2.70;;;;;;;21.32;37.30;100844.72;5118470;27;20031;-73
2023/04/22 04:02:48;;;;;;;2.70;2.50;;;;;;;21.21;37.35;100842.56;5102649;28;20035;-73
2023/04/22 04:05:16;;;;;;;3.80;2.80;;;;;;;21.31;37.42;100842.25;5103143;28;20042;-73
2023/04/22 04:07:41;;;;;;;3.28;2.53;;;;;;;21.24;37.42;100839.56;5107505;27;20039;-73
2023/04/22 04:10:07;;;;;;;2.97;2.63;;;;;;;21.28;37.16;100840.00;5120495;27;20069;-73
2023/04/22 04:12:33;;;;;;;3.33;2.67;;;;;;;21.18;37.34;100842.09;5109142;27;20054;-73
2023/04/22 04:14:59;;;;;;;3.00;2.63;;;;;;;21.23;37.39;100839.72;5095254;28;20699;-73
2023/04/22 04:17:25;;;;;;;2.67;2.42;;;;;;;21.23;37.29;100832.59;5095355;27;20058;-72
2023/04/22 04:19:52;;;;;;;3.85;2.92;;;;;;;21.24;37.20;100838.69;5101812;27;20071;-73
2023/04/22 04:22:19;;;;;;;3.28;2.58;;;;;;;21.13;37.47;100821.47;5098259;27;20027;-73
2023/04/22 04:24:54;;;;;;;3.10;2.80;;;;;;;21.23;37.43;100827.28;5104361;27;20770;-73
2023/04/22 04:27:23;;;;;;;3.78;2.63;;;;;;;21.23;37.21;100834.41;5103631;27;20048;-73
2023/04/22 04:29:51;;;;;;;3.47;2.70;;;;;;;21.28;37.45;100834.69;5094610;27;20037;-74
2023/04/22 04:32:32;;;;;;;2.80;2.50;;;;;;;21.17;37.47;100829.84;5096946;27;20382;-73
2023/04/22 04:35:00;;;;;;;2.72;2.53;;;;;;;21.23;37.35;100831.75;5100545;27;20087;-74
2023/04/22 04:37:26;;;;;;;3.20;2.80;;;;;;;21.24;37.37;100831.59;5103111;28;20048;-73
2023/04/22 04:40:06;;;;;;;4.85;2.63;;;;;;;21.11;37.47;100812.91;5096116;28;20069;-73
2023/04/22 04:43:01;;;;;;;2.97;2.67;;;;;;;21.12;37.72;100823.31;5104051;27;20040;-73
2023/04/22 04:45:31;;;;;;;3.28;2.60;;;;;;;21.18;37.26;100831.50;5092432;27;20118;-72
2023/04/22 04:47:59;;;;;;;2.60;2.40;;;;;;;21.19;37.43;100814.63;5104894;27;20166;-73
2023/04/22 04:50:30;;;;;;;3.10;2.80;;;;;;;21.13;37.56;100811.69;5104415;28;20044;-72
2023/04/22 04:53:00;;;;;;;3.80;2.80;;;;;;;21.16;37.68;100813.16;5102796;27;20039;-73
2023/04/22 04:55:32;;;;;;;3.10;2.80;;;;;;;21.20;37.52;100818.91;5093859;28;20069;-72
2023/04/22 04:57:59;;;;;;;3.33;3.00;;;;;;;21.16;37.35;100820.28;5100304;28;20024;-72
2023/04/22 05:00:25;;;;;;;2.53;2.30;;;;;;;21.15;37.31;100821.28;5097734;27;20716;-72
2023/04/22 05:02:51;;;;;;;3.22;2.75;;;;;;;21.10;37.66;100820.03;5103315;27;20505;-72
2023/04/22 05:05:17;;;;;;;3.28;2.45;;;;;;;21.13;37.61;100814.34;5096496;28;20100;-72
2023/04/22 05:07:42;;;;;;;2.90;2.60;;;;;;;21.15;37.40;100814.16;5094373;28;20027;-72
2023/04/22 05:10:09;;;;;;;3.42;2.50;;;;;;;21.17;37.39;100809.50;5096052;28;20035;-72
2023/04/22 05:12:36;;;;;;;3.35;2.60;;;;;;;21.10;37.38;100813.91;5105960;27;20126;-72
2023/04/22 05:15:04;;;;;;;3.28;2.58;;;;;;;21.13;37.56;100816.19;5096339;28;20096;-72
2023/04/22 05:17:30;;;;;;;2.90;2.47;;;;;;;21.16;37.44;100813.16;5094249;28;20032;-72
2023/04/22 05:19:56;;;;;;;2.83;2.53;;;;;;;21.08;37.48;100819.41;5097077;28;20056;-72
2023/04/22 05:22:22;;;;;;;2.88;2.60;;;;;;;21.12;37.54;100825.94;5095100;28;20035;-72
2023/04/22 05:24:48;;;;;;;2.90;2.45;;;;;;;21.13;37.64;100830.22;5093440;28;20046;-73
2023/04/22 05:27:13;;;;;;;2.67;2.40;;;;;;;21.11;37.39;100821.66;5095873;28;20040;-73
2023/04/22 05:29:39;;;;;;;2.90;2.50;;;;;;;21.06;37.60;100818.75;5101890;27;20055;-72
2023/04/22 05:32:07;;;;;;;2.80;2.60;;;;;;;21.16;37.53;100828.22;5094760;27;20035;-72
2023/04/22 05:34:34;;;;;;;2.47;2.28;;;;;;;21.07;37.54;100828.34;5097312;28;20024;-72
2023/04/22 05:37:02;;;;;;;2.58;2.38;;;;;;;21.09;37.34;100828.16;5092934;28;20098;-73
2023/04/22 05:39:27;;;;;;;3.08;2.63;;;;;;;21.01;37.65;100823.81;5095406;28;20135;-73
2023/04/22 05:41:54;;;;;;;2.95;2.50;;;;;;;21.12;37.50;100828.59;5107228;28;20031;-72
2023/04/22 05:44:20;;;;;;;2.75;2.38;;;;;;;21.10;37.65;100824.50;5103705;27;20731;-72
2023/04/22 05:46:46;;;;;;;3.78;2.50;;;;;;;21.09;37.35;100836.91;5102168;28;20040;-73
2023/04/22 05:49:12;;;;;;;3.15;2.80;;;;;;;21.06;37.59;100839.13;5120983;27;20027;-72
2023/04/22 05:51:56;;;;;;;2.97;2.30;;;;;;;21.05;37.63;100827.72;5111850;28;20050;-73
2023/04/22 05:54:28;;;;;;;3.25;2.70;;;;;;;21.06;37.68;100831.19;5108752;27;20423;-72
2023/04/22 05:56:54;;;;;;;2.60;2.40;;;;;;;21.01;37.80;100837.06;5101726;27;20055;-72
2023/04/22 05:59:20;;;;;;;3.58;2.45;;;;;;;21.01;37.75;100836.22;5098864;27;20032;-73
2023/04/22 06:01:46;;;;;;;2.65;2.45;;;;;;;21.06;37.65;100826.72;5102737;28;20074;-72
2023/04/22 06:04:17;;;;;;;3.22;2.55;;;;;;;21.04;37.78;100838.50;5102887;28;20040;-72
2023/04/22 06:06:43;;;;;;;3.58;2.80;;;;;;;21.04;37.71;100828.72;5107898;28;20122;-72
2023/04/22 06:09:08;;;;;;;2.42;2.22;;;;;;;20.99;37.70;100836.38;5108665;27;20069;-72
2023/04/22 06:11:34;;;;;;;2.58;2.38;;;;;;;21.06;37.76;100831.19;5110622;28;20097;-72
2023/04/22 06:14:00;;;;;;;3.22;2.55;;;;;;;21.07;37.65;100841.59;5099194;28;20073;-72
2023/04/22 06:16:28;;;;;;;3.42;2.70;;;;;;;21.03;37.81;100834.22;5117524;28;20059;-72
2023/04/22 06:18:54;;;;;;;3.03;2.63;;;;;;;21.05;37.51;100827.72;5097773;28;20035;-73
2023/04/22 06:21:21;;;;;;;3.25;2.40;;;;;;;21.08;37.52;100829.97;5096152;28;20037;-72
2023/04/22 06:23:47;;;;;;;2.63;2.42;;;;;;;21.08;37.57;100832.63;5094498;28;20039;-72
2023/04/22 06:26:12;;;;;;;3.00;2.47;;;;;;;21.05;37.56;100834.84;5111106;28;20058;-72
2023/04/22 06:28:39;;;;;;;3.50;2.70;;;;;;;21.04;37.79;100834.03;5099623;28;20081;-73
2023/04/22 06:31:09;;;;;;;2.55;2.35;;;;;;;21.01;37.88;100834.41;5096449;28;20078;-72
2023/04/22 06:33:35;;;;;;;3.28;2.60;;;;;;;20.99;37.95;100831.09;5077703;28;20023;-72
2023/04/22 06:36:01;;;;;;;3.00;2.60;;;;;;;21.08;37.57;100827.34;5087375;28;20032;-72
2023/04/22 06:38:28;;;;;;;2.88;2.50;;;;;;;21.06;37.87;100831.19;5106250;28;20074;-73
2023/04/22 06:41:12;;;;;;;3.50;2.40;;;;;;;21.01;37.87;100839.69;5109237;28;20605;-72
2023/04/22 06:43:42;;;;;;;2.75;2.55;;;;;;;20.99;37.73;100838.22;5114336;28;20035;-72
2023/04/22 06:46:08;;;;;;;3.92;2.88;;;;;;;21.01;37.48;100833.59;5118266;28;20496;-73
2023/04/22 06:48:57;;;;;;;2.70;2.45;;;;;;;20.99;37.83;100846.16;5106125;28;20067;-72
2023/04/22 06:51:41;;;;;;;4.47;2.92;;;;;;;21.00;37.61;100843.31;5107885;28;20042;-73
2023/04/22 06:54:07;;;;;;;3.22;2.75;;;;;;;21.01;37.64;100838.88;5101539;28;20761;-72
2023/04/22 06:56:32;;;;;;;3.53;2.75;;;;;;;21.05;37.72;100838.31;5113479;28;20043;-73
2023/04/22 06:58:58;;;;;;;2.88;2.50;;;;;;;21.06;37.65;100839.13;5114904;28;20048;-72
2023/04/22 07:01:24;;;;;;;3.00;2.70;;;;;;;21.02;37.71;100819.34;5091340;28;20032;-73
2023/04/22 07:03:49;;;;;;;3.05;2.75;;;;;;;20.98;37.90;100839.22;5098154;28;20097;-72
2023/04/22 07:06:15;;;;;;;2.75;2.55;;;;;;;20.96;37.92;100834.13;5101384;27;20043;-72
2023/04/22 07:08:41;;;;;;;2.65;2.45;;;;;;;20.92;38.13;100837.34;5116585;27;20047;-78
2023/04/22 07:11:07;;;;;;;3.33;2.78;;;;;;;20.97;37.86;100829.66;5106232;27;20131;-77
2023/04/22 07:13:36;;;;;;;3.45;2.80;;;;;;;20.95;37.95;100834.31;5102048;28;20050;-77
2023/04/22 07:16:01;;;;;;;3.10;2.60;;;;;;;20.99;37.77;100827.63;5110663;27;20040;-77
2023/04/22 07:18:28;;;;;;;2.72;2.53;;;;;;;20.92;38.14;100827.56;5118200;27;20077;-77
2023/04/22 07:20:53;;;;;;;2.63;2.42;;;;;;;20.97;38.10;100821.69;5115242;27;20032;-77
2023/04/22 07:23:19;;;;;;;3.50;2.92;;;;;;;20.95;37.93;100818.44;5099580;28;20474;-76
2023/04/22 07:25:44;;;;;;;3.90;2.45;;;;;;;21.00;37.95;100816.84;5109549;28;20078;-77
2023/04/22 07:28:10;;;;;;;4.05;3.00;;;;;;;20.95;37.88;100815.78;5112614;28;20055;-78
2023/04/22 07:30:35;;;;;;;3.60;2.55;;;;;;;20.93;38.05;100807.22;5116906;27;20069;-79
2023/04/22 07:33:01;;;;;;;3.25;2.90;;;;;;;20.95;38.00;100813.13;5092113;28;20040;-77
2023/04/22 07:35:27;;;;;;;4.18;2.70;;;;;;;20.99;38.02;100811.75;5112769;27;20493;-76
2023/04/22 07:37:53;;;;;;;2.95;2.65;;;;;;;20.98;37.80;100810.09;5109516;28;20036;-77
2023/04/22 07:40:19;;;;;;;3.70;2.83;;;;;;;21.03;37.69;100802.44;5111169;27;20036;-78
2023/04/22 07:42:45;;;;;;;2.85;2.55;;;;;;;21.03;37.67;100802.44;5112681;27;20098;-77
2023/04/22 07:45:11;;;;;;;2.95;2.65;;;;;;;21.02;38.01;100800.81;5112582;28;20040;-76
2023/04/22 07:47:37;;;;;;;3.30;2.85;;;;;;;21.04;37.75;100794.31;5111949;27;20048;-76
2023/04/22 07:50:03;;;;;;;3.35;2.63;;;;;;;21.01;38.00;100799.16;5116389;27;20039;-78
2023/04/22 07:52:31;;;;;;;4.22;3.83;;;;;;;21.01;37.80;100805.28;5112310;27;20047;-76
2023/04/22 07:54:57;;;;;;;2.55;2.35;;;;;;;21.09;37.72;100807.78;5111789;27;20043;-75
2023/04/22 07:57:22;;;;;;;4.28;2.70;;;;;;;21.07;37.73;100809.81;5101805;28;20032;-77
2023/04/22 07:59:48;;;;;;;3.35;2.97;;;;;;;21.06;37.72;100804.72;5108943;27;20047;-76
2023/04/22 08:02:14;;;;;;;2.90;2.60;;;;;;;21.00;37.92;100803.59;5110384;27;20038;-76
2023/04/22 08:04:39;;;;;;;3.13;2.60;;;;;;;21.07;37.97;100803.69;5108800;27;20393;-76
2023/04/22 08:07:05;;;;;;;3.28;2.65;;;;;;;21.08;37.68;100795.56;5105413;27;20040;-77
2023/04/22 08:09:30;;;;;;;3.30;3.00;;;;;;;21.05;38.17;100800.44;5112632;27;20044;-77
2023/04/22 08:11:57;;;;;;;3.00;2.67;;;;;;;21.06;37.89;100797.59;5110952;27;20051;-79
2023/04/22 08:14:23;;;;;;;2.88;2.63;;;;;;;21.09;37.79;100791.91;5109784;27;20031;-76
2023/04/22 08:16:50;;;;;;;3.33;2.80;;;;;;;21.16;37.64;100788.50;5104449;27;20127;-77
2023/04/22 08:19:17;;;;;;;2.72;2.50;;;;;;;21.13;38.07;100797.63;5106962;27;20074;-76
2023/04/22 08:21:43;;;;;;;2.65;2.42;;;;;;;21.18;37.89;100789.94;5122885;27;20140;-76
2023/04/22 08:24:09;;;;;;;3.20;2.90;;;;;;;21.17;37.74;100780.34;5114644;27;20051;-77
2023/04/22 08:26:35;;;;;;;2.55;2.30;;;;;;;21.11;37.78;100768.72;5118133;27;20048;-75
2023/04/22 08:29:01;;;;;;;3.05;2.50;;;;;;;21.18;37.79;100778.53;5112196;27;20057;-74
2023/04/22 08:31:27;;;;;;;3.00;2.47;;;;;;;21.16;37.84;100776.06;5107130;27;20129;-77
2023/04/22 08:33:52;;;;;;;3.03;2.45;;;;;;;21.22;37.65;100782.47;5110138;27;20042;-77
2023/04/22 08:36:21;;;;;;;3.17;2.72;;;;;;;21.19;37.76;100772.25;5112622;27;20047;-77
2023/04/22 08:38:47;;;;;;;2.63;2.42;;;;;;;21.20;37.85;100782.66;5114310;27;20042;-75
2023/04/22 08:41:13;;;;;;;3.70;2.70;;;;;;;21.33;38.10;100774.84;5109148;27;20440;-76
2023/04/22 08:43:38;;;;;;;3.28;2.65;;;;;;;21.29;37.97;100775.41;5109757;27;20044;-75
2023/04/22 08:46:04;;;;;;;3.33;2.60;;;;;;;21.21;37.97;100773.69;5110444;27;20101;-75
2023/04/22 08:48:31;;;;;;;4.65;2.60;;;;;;;21.21;37.81;100759.63;5107915;27;20036;-74
2023/04/22 08:50:57;;;;;;;3.72;3.38;;;;;;;21.33;37.64;100772.19;5112371;27;20047;-75
2023/04/22 08:53:23;;;;;;;3.53;2.63;;;;;;;21.29;38.10;100778.06;5113149;27;20058;-75
2023/04/22 08:55:49;;;;;;;3.72;2.65;;;;;;;21.31;38.05;100770.75;5114318;27;20059;-75
2023/04/22 08:58:15;;;;;;;3.35;2.70;;;;;;;21.37;37.75;100765.53;5109222;28;20135;-76
2023/04/22 09:00:43;;;;;;;2.72;2.50;;;;;;;21.29;37.97;100751.56;5109754;27;20130;-75
2023/04/22 09:03:10;;;;;;;2.70;2.30;;;;;;;21.24;37.92;100761.91;5110257;27;20107;-75
2023/04/22 09:05:38;;;;;;;3.40;2.80;;;;;;;21.32;38.03;100769.72;5108604;27;20118;-75
2023/04/22 09:08:04;;;;;;;3.13;2.83;;;;;;;21.32;37.96;100767.91;5108874;27;20562;-76
2023/04/22 09:10:30;;;;;;;3.08;2.50;;;;;;;21.28;38.23;100752.59;5110890;27;20051;-76
2023/04/22 09:12:57;;;;;;;2.85;2.60;;;;;;;21.33;38.26;100758.13;5106077;27;20124;-76
2023/04/22 09:15:24;;;;;;;3.80;2.70;;;;;;;21.27;38.36;100758.91;5112391;27;20038;-77
2023/04/22 09:17:52;;;;;;;2.60;2.40;;;;;;;21.28;38.51;100758.69;5105978;27;20039;-76
2023/04/22 09:20:18;;;;;;;3.22;2.58;;;;;;;21.21;38.34;100749.03;5099980;28;20540;-76
2023/04/22 09:22:47;;;;;;;2.90;2.60;;;;;;;21.26;38.33;100752.78;5106880;27;20035;-77
2023/04/22 09:25:17;;;;;;;3.30;2.50;;;;;;;21.31;38.28;100747.72;5114668;27;20059;-77
2023/04/22 09:27:46;;;;;;;3.17;2.78;;;;;;;21.28;38.50;100752.59;5088104;28;20127;-77
2023/04/22 09:30:13;;;;;;;3.10;2.80;;;;;;;21.26;38.64;100754.59;5105746;28;20035;-70
2023/04/22 09:32:39;;;;;;;4.03;3.22;;;;;;;21.96;38.75;100761.66;5062280;27;20043;-72
2023/04/22 09:35:05;;;;;;;3.78;3.15;;;;;;;22.10;38.47;100750.13;5110802;27;20047;-69
2023/04/22 09:37:32;;;;;;;3.78;3.30;;;;;;;22.20;38.32;100741.81;5065208;27;20066;-69
2023/04/22 09:39:57;;;;;;;3.17;2.88;;;;;;;22.28;38.43;100744.31;5104894;27;20111;-69
2023/04/22 09:42:23;;;;;;;3.58;3.10;;;;;;;22.35;38.38;100746.97;5077253;27;20062;-70
2023/04/22 09:44:53;;;;;;;3.47;3.05;;;;;;;22.40;38.52;100736.56;5093761;28;20814;-72
2023/04/22 09:47:20;;;;;;;4.18;3.08;;;;;;;22.44;38.67;100729.84;5084687;27;20097;-72
2023/04/22 09:49:49;;;;;;;3.88;3.05;;;;;;;22.26;39.85;100733.03;5091052;27;20659;-69
2023/04/22 09:52:26;;;;;;;3.43;3.03;;;;;;;22.10;40.46;100733.41;5109462;27;20059;-68
2023/04/22 09:54:53;;;;;;;3.78;3.00;;;;;;;22.06;40.78;100730.31;5073830;27;20481;-70
2023/04/22 09:57:21;;;;;;;3.67;2.83;;;;;;;21.98;40.61;100728.63;5110100;27;20058;-72
2023/04/22 09:59:50;;;;;;;4.13;3.05;;;;;;;21.98;40.97;100723.31;5066238;28;20116;-72
2023/04/22 10:02:16;;;;;;;3.47;2.97;;;;;;;21.98;40.65;100718.00;5104223;28;20051;-72
2023/04/22 10:04:41;;;;;;;4.22;3.03;;;;;;;21.97;40.92;100704.94;5067807;28;22922;-71
2023/04/22 10:07:07;;;;;;;3.42;3.08;;;;;;;21.92;41.02;100694.13;5102816;28;20043;-72
2023/04/22 10:09:33;;;;;;;5.20;3.30;;;;;;;21.91;41.10;100688.00;5070651;28;20162;-71
2023/04/22 10:12:00;;;;;;;5.32;3.30;;;;;;;21.89;41.28;100692.66;5110218;28;20046;-71
2023/04/22 10:14:26;;;;;;;4.18;3.28;;;;;;;21.83;41.71;100696.09;5093556;27;20031;-71
2023/04/22 10:16:56;;;;;;;5.05;3.28;;;;;;;21.79;41.27;100691.41;5110027;28;20450;-71
2023/04/22 10:19:24;;;;;;;4.03;2.70;;;;;;;21.99;40.67;100687.00;5079956;28;20059;-71
2023/04/22 10:21:54;;;;;;;3.28;2.70;;;;;;;22.19;39.87;100695.06;5103384;28;20059;-71
2023/04/22 10:24:20;;;;;;;3.67;2.85;;;;;;;22.26;39.82;100693.25;5080393;27;20082;-71
2023/04/22 10:27:05;;;;;;;2.63;2.42;;;;;;;22.31;39.41;100688.19;5097709;28;20047;-72
2023/04/22 10:29:37;;;;;;;4.25;2.85;;;;;;;22.30;39.31;100674.13;5067156;28;20039;-71
2023/04/22 10:32:05;;;;;;;2.70;2.50;;;;;;;22.37;38.98;100689.22;5107184;28;20024;-71
2023/04/22 10:34:31;;;;;;;3.13;2.67;;;;;;;22.41;39.04;100690.44;5067438;28;21773;-72
2023/04/22 10:37:10;;;;;;;3.17;2.80;;;;;;;22.44;38.87;100693.53;5101568;28;20424;-72
2023/04/22 10:39:37;;;;;;;3.20;2.58;;;;;;;22.47;38.74;100698.44;5095699;28;20107;-72
2023/04/22 10:42:03;;;;;;;3.00;2.70;;;;;;;22.45;38.77;100689.06;5112569;27;20039;-71
2023/04/22 10:44:44;;;;;;;3.88;3.20;;;;;;;22.32;40.24;100679.22;5069336;27;20077;-70
2023/04/22 10:47:09;;;;;;;3.53;2.92;;;;;;;22.38;38.97;100673.09;5107285;27;20048;-71
2023/04/22 10:49:35;;;;;;;3.80;2.78;;;;;;;22.45;39.06;100671.31;5065222;28;20044;-70
2023/04/22 10:52:02;;;;;;;3.75;2.53;;;;;;;22.48;39.04;100672.72;5114695;27;20047;-71
2023/04/22 10:54:28;;;;;;;3.22;2.60;;;;;;;22.38;40.02;100661.66;5071263;27;20039;-71
2023/04/22 10:57:00;;;;;;;3.88;2.88;;;;;;;22.48;39.43;100668.25;5098408;27;20139;-71
2023/04/22 10:59:26;;;;;;;4.68;2.90;;;;;;;22.41;40.03;100656.78;5116841;27;20750;-72
2023/04/22 11:01:52;;;;;;;3.33;2.60;;;;;;;22.47;39.08;100660.47;5068779;27;20035;-72
2023/04/22 11:04:19;;;;;;;3.40;2.83;;;;;;;22.47;39.17;100655.19;5108679;27;20156;-71
2023/04/22 11:06:45;;;;;;;4.65;3.20;;;;;;;22.50;39.04;100639.66;5077374;27;20044;-73
2023/04/22 11:09:15;;;;;;;4.82;2.72;;;;;;;22.49;39.38;100647.81;5115460;28;20048;-73
2023/04/22 11:11:41;;;;;;;2.92;2.55;;;;;;;22.56;38.93;100646.00;5071803;27;20042;-74
2023/04/22 11:14:07;;;;;;;6.25;3.33;;;;;;;22.54;38.97;100640.06;5110257;28;20405;-74
2023/04/22 11:16:34;;;;;;;3.10;2.80;;;;;;;22.54;38.71;100640.06;5074251;27;21732;-73
2023/04/22 11:18:59;;;;;;;3.88;2.95;;;;;;;22.55;38.93;100636.41;5108997;28;20039;-71
2023/04/22 11:21:26;;;;;;;3.17;2.65;;;;;;;22.54;38.74;100643.53;5094067;27;20069;-74
2023/04/22 11:23:52;;;;;;;3.15;2.65;;;;;;;22.54;38.84;100638.22;5117488;28;20042;-74